Aeroporto :
LOGIN :

Iscrizione | Disclaimer

   EN    FR    IT 

 










Sommario :    VFR   VFR Marginale   IFR   IFR Intensivo   IFR Molto Intensivo
Visibilità : 
Base nubi : 
>= 8 km
>= 3000ft
5 / 8 km
1000 / 3000 ft
1500m / 5 km
500 / 1000 ft
800 / 1500m
200 / 500 ft
< 800m
< 200 ft
Simboli :   Temporali  Nebbia  Neve Forte  Precipitazioni Forti  Vento > 20 kt
SIGMETs :   Varie  Temporali  Ghiacco  Turbolenza  Onda orograficha  Ceneri Vulcaniche






- Altitudine del aeroporto : 112 ft
- Codice IATA : KIR


EIKY - Kerry Farranfore

ULTIMO METAR :
  • 251730Z 20009KT 9999 BKN022 15/12 Q1031

METARs OBSOLETI :
  • 251700Z 18011KT 9999 BKN023 14/12 Q1031
  • 251630Z 19012KT 160V220 9999 BKN025 15/11 Q1031
  • 251600Z 17012KT 130V200 9999 FEW020 BKN027 14/11 Q1031
  • 251530Z 17011KT 9999 SCT020 BKN024 14/11 Q1031
  • 251500Z 17012KT 140V200 9999 FEW022 BKN027 14/11 Q1031

TAF TAF EIKY
Valido dal 25 a 18 ore il 26 a 03 ore UTC


251700Z 2518/2603 19012KT 9999 -RA BKN015
TEMPO 2518/2603 4000 BR BKN007
PROB40
TEMPO 2518/2603 2000 BR BKN003
BECMG 2520/2522 VRB03KT



MetMap, La meteo Aeronautica in un colpo d'occhio ! - Copyright ORBIFLY Dicembre 2007 - Disclaimer

ORBIFLY MET'MAP TEAM :

Programmazione e sviluppo : Alexandra Zaïnal
Concezione : Baudouin d'Aumeries
Aiuto per la programmazione : Marc-Olivier Méhu
Supporto tecnico e logistico : Manuel Goepfert
Aiuto per la traduzione : Arnaldo La Scala

Contatto : metmap@orbifly.com




FONTI E CREDITI :

   NOAA